Time;durP1;ratioP1;P1;durP2;ratioP2;P2;SDS_P1;SDS_P2;PMS_P1;PMS_P2;Temp;Humidity;BMP_temperature;BMP_pressure;BME280_temperature;BME280_humidity;BME280_pressure;Samples;Min_cycle;Max_cycle;Signal;HPM_P1;HPM_P2
2022/09/18 00:02:08;;;;;;;5.00;1.23;;;11.80;99.90;;;;;;5027954;28;20026;-71
2022/09/18 00:04:34;;;;;;;2.67;0.40;;;11.80;99.90;;;;;;5027763;28;20517;-70
2022/09/18 00:06:59;;;;;;;3.55;0.52;;;11.80;99.90;;;;;;5028141;28;20060;-70
2022/09/18 00:09:25;;;;;;;7.07;0.50;;;11.80;99.90;;;;;;5027588;28;20030;-72
2022/09/18 00:11:51;;;;;;;5.40;0.95;;;11.80;99.90;;;;;;5028544;28;20497;-70
2022/09/18 00:14:21;;;;;;;8.48;1.10;;;11.80;99.90;;;;;;5025249;28;20510;-71
2022/09/18 00:16:48;;;;;;;5.90;0.65;;;11.80;99.90;;;;;;5028138;28;20116;-70
2022/09/18 00:19:15;;;;;;;4.60;1.25;;;11.70;99.90;;;;;;5021012;28;20045;-69
2022/09/18 00:21:43;;;;;;;6.50;0.63;;;11.70;99.90;;;;;;5031879;28;20033;-70
2022/09/18 00:24:09;;;;;;;3.95;0.50;;;11.70;99.90;;;;;;5032657;28;20041;-71
2022/09/18 00:26:35;;;;;;;10.13;0.55;;;11.70;99.90;;;;;;5030720;28;20064;-71
2022/09/18 00:29:01;;;;;;;3.60;0.30;;;11.70;99.90;;;;;;5035051;28;20033;-68
2022/09/18 00:31:30;;;;;;;7.32;0.60;;;11.70;99.90;;;;;;5032491;28;20060;-69
2022/09/18 00:33:57;;;;;;;8.52;0.40;;;11.70;99.90;;;;;;5033146;28;20041;-69
2022/09/18 00:36:24;;;;;;;5.35;0.93;;;11.70;99.90;;;;;;5033917;28;20040;-71
2022/09/18 00:38:50;;;;;;;4.72;0.75;;;11.70;99.90;;;;;;5037311;28;20520;-71
2022/09/18 00:41:28;;;;;;;3.85;0.73;;;11.80;99.90;;;;;;5034493;28;20064;-71
2022/09/18 00:44:15;;;;;;;9.68;0.60;;;11.80;99.90;;;;;;5039430;28;20061;-72
2022/09/18 00:46:43;;;;;;;5.22;0.60;;;11.80;99.90;;;;;;5037599;28;20034;-71
2022/09/18 00:49:19;;;;;;;5.72;0.60;;;11.80;99.90;;;;;;5039261;28;20508;-72
2022/09/18 00:51:48;;;;;;;5.25;0.80;;;11.80;99.90;;;;;;5039810;28;20502;-71
2022/09/18 00:54:22;;;;;;;3.60;0.82;;;11.80;99.90;;;;;;5031177;28;20092;-69
2022/09/18 00:56:50;;;;;;;2.67;0.40;;;11.80;99.90;;;;;;5028470;28;20041;-72
2022/09/18 00:59:23;;;;;;;8.13;0.80;;;11.80;99.90;;;;;;5027094;28;20785;-70
2022/09/18 01:01:48;;;;;;;2.83;0.65;;;11.80;99.90;;;;;;5027050;28;20655;-71
2022/09/18 01:04:14;;;;;;;2.00;0.88;;;11.80;99.90;;;;;;5025641;28;20029;-68
2022/09/18 01:06:49;;;;;;;1.52;0.25;;;11.80;99.90;;;;;;5026628;28;20078;-70
2022/09/18 01:09:33;;;;;;;3.25;0.70;;;11.80;99.90;;;;;;5027012;28;20954;-68
2022/09/18 01:12:10;;;;;;;8.20;0.50;;;11.80;99.90;;;;;;5023470;28;20148;-69
2022/09/18 01:14:47;;;;;;;2.88;0.50;;;11.80;99.90;;;;;;5022447;28;20657;-71
2022/09/18 01:17:37;;;;;;;8.45;0.90;;;11.80;99.90;;;;;;5026934;28;20141;-71
2022/09/18 01:20:27;;;;;;;9.18;0.47;;;11.80;99.90;;;;;;5023327;28;20136;-70
2022/09/18 01:23:20;;;;;;;6.18;0.50;;;11.80;99.90;;;;;;5025684;28;20033;-69
2022/09/18 01:26:19;;;;;;;5.72;0.77;;;11.80;99.90;;;;;;5027706;28;20041;-73
2022/09/18 01:29:17;;;;;;;2.58;0.28;;;11.80;99.90;;;;;;5027400;28;20045;-72
2022/09/18 01:32:04;;;;;;;8.27;0.47;;;11.80;99.90;;;;;;5021950;28;20103;-71
2022/09/18 01:35:09;;;;;;;5.22;0.60;;;11.80;99.90;;;;;;5020903;28;20041;-71
2022/09/18 01:37:57;;;;;;;4.72;0.90;;;11.80;99.90;;;;;;5006820;28;20038;-70
2022/09/18 01:40:28;;;;;;;7.18;1.05;;;11.80;99.90;;;;;;5024593;28;20434;-71
2022/09/18 01:42:58;;;;;;;8.00;0.50;;;11.70;99.90;;;;;;5024873;28;20120;-69
2022/09/18 01:45:29;;;;;;;2.85;0.20;;;11.70;99.90;;;;;;5025435;28;20517;-70
2022/09/18 01:48:03;;;;;;;13.32;1.85;;;11.70;99.90;;;;;;5020911;28;20135;-70
2022/09/18 01:50:32;;;;;;;1.38;0.38;;;11.70;99.90;;;;;;5022334;28;20052;-70
2022/09/18 01:53:04;;;;;;;5.03;0.93;;;11.70;99.90;;;;;;5021341;28;20124;-71
2022/09/18 01:55:33;;;;;;;0.98;0.20;;;11.70;99.90;;;;;;5030083;28;20512;-71
2022/09/18 01:58:10;;;;;;;6.85;0.52;;;11.70;99.90;;;;;;5037195;28;20060;-71
2022/09/18 02:00:40;;;;;;;3.30;0.52;;;11.70;99.90;;;;;;5029492;28;20083;-70
2022/09/18 02:03:13;;;;;;;2.73;0.40;;;11.70;99.90;;;;;;5032432;28;20045;-71
2022/09/18 02:05:51;;;;;;;6.22;0.28;;;11.70;99.90;;;;;;5031844;28;20156;-71
2022/09/18 02:08:40;;;;;;;7.03;0.30;;;11.70;99.90;;;;;;5026479;28;20130;-69
2022/09/18 02:11:09;;;;;;;4.70;0.60;;;11.70;99.90;;;;;;5023472;28;20053;-70
2022/09/18 02:14:04;;;;;;;5.70;0.30;;;11.70;99.90;;;;;;5025448;28;20037;-70
2022/09/18 02:16:44;;;;;;;4.57;0.38;;;11.70;99.90;;;;;;5017899;28;20114;-68
2022/09/18 02:19:15;;;;;;;4.57;0.25;;;11.70;99.90;;;;;;5019169;28;20753;-71
2022/09/18 02:21:41;;;;;;;14.25;0.55;;;11.70;99.90;;;;;;5025608;28;20038;-70
2022/09/18 02:24:09;;;;;;;5.97;0.50;;;11.70;99.90;;;;;;5024993;28;20133;-70
2022/09/18 02:26:39;;;;;;;3.17;0.40;;;11.60;99.90;;;;;;5025722;28;20122;-70
2022/09/18 02:29:06;;;;;;;0.95;0.20;;;11.70;99.90;;;;;;5028381;28;20260;-71
2022/09/18 02:31:33;;;;;;;8.27;0.50;;;11.70;99.90;;;;;;5029086;28;20045;-70
2022/09/18 02:33:58;;;;;;;8.55;0.57;;;11.70;99.90;;;;;;5025516;28;20481;-70
2022/09/18 02:36:34;;;;;;;4.10;0.63;;;11.70;99.90;;;;;;5024943;28;20040;-71
2022/09/18 02:39:13;;;;;;;4.93;0.70;;;11.70;99.90;;;;;;5022678;28;20041;-68
2022/09/18 02:42:02;;;;;;;2.90;0.70;;;11.70;99.90;;;;;;5023607;28;20129;-71
2022/09/18 02:44:48;;;;;;;6.35;0.50;;;11.70;99.90;;;;;;5019560;28;20057;-70
2022/09/18 02:47:52;;;;;;;3.22;0.30;;;11.60;99.90;;;;;;5025223;28;20029;-70
2022/09/18 02:50:30;;;;;;;3.95;0.43;;;11.60;99.90;;;;;;5023377;28;20069;-69
2022/09/18 02:53:07;;;;;;;4.68;0.35;;;11.50;99.90;;;;;;5020159;28;20092;-71
2022/09/18 02:55:44;;;;;;;7.22;0.45;;;11.50;99.90;;;;;;5023756;28;20064;-70
2022/09/18 02:58:18;;;;;;;6.40;0.40;;;11.60;99.90;;;;;;5023472;28;20049;-70
2022/09/18 03:00:46;;;;;;;7.13;0.30;;;11.50;99.90;;;;;;5023741;28;20025;-69
2022/09/18 03:03:13;;;;;;;8.57;0.30;;;11.60;99.90;;;;;;5023589;28;20029;-70
2022/09/18 03:05:39;;;;;;;6.28;0.52;;;11.50;99.90;;;;;;5024628;28;20032;-69
2022/09/18 03:08:05;;;;;;;4.85;0.50;;;11.60;99.90;;;;;;5025369;28;20527;-70
2022/09/18 03:10:31;;;;;;;3.67;0.60;;;11.60;99.90;;;;;;5025686;28;20502;-68
2022/09/18 03:12:57;;;;;;;4.20;0.85;;;11.60;99.90;;;;;;5036385;28;20057;-70
2022/09/18 03:15:22;;;;;;;5.38;0.25;;;11.60;99.90;;;;;;5034486;28;20784;-70
2022/09/18 03:17:48;;;;;;;3.88;0.52;;;11.60;99.90;;;;;;5032434;28;20073;-69
2022/09/18 03:20:13;;;;;;;2.88;0.25;;;11.70;99.90;;;;;;5027769;28;20128;-68
2022/09/18 03:22:39;;;;;;;4.60;0.73;;;11.70;99.90;;;;;;5023061;28;20040;-70
2022/09/18 03:25:05;;;;;;;2.67;0.43;;;11.70;99.90;;;;;;5023915;28;20044;-67
2022/09/18 03:27:31;;;;;;;5.15;1.25;;;11.70;99.90;;;;;;5022584;28;20034;-70
2022/09/18 03:29:56;;;;;;;2.88;0.60;;;11.70;99.90;;;;;;5029616;28;20120;-71
2022/09/18 03:32:22;;;;;;;6.43;0.35;;;11.70;99.90;;;;;;5031167;28;20089;-72
2022/09/18 03:34:48;;;;;;;5.13;0.57;;;11.70;99.90;;;;;;5035668;28;20026;-67
2022/09/18 03:37:13;;;;;;;5.18;0.65;;;11.70;99.90;;;;;;5026539;28;20060;-70
2022/09/18 03:39:39;;;;;;;5.60;0.65;;;11.70;99.90;;;;;;5024447;28;20406;-70
2022/09/18 03:42:05;;;;;;;5.63;0.40;;;11.70;99.90;;;;;;5024966;28;20075;-68
2022/09/18 03:44:30;;;;;;;5.55;0.50;;;11.70;99.90;;;;;;5022302;28;20033;-70
2022/09/18 03:46:56;;;;;;;3.53;0.22;;;11.70;99.90;;;;;;5025191;28;20513;-71
2022/09/18 03:49:22;;;;;;;4.63;0.28;;;11.70;99.90;;;;;;5023705;28;20041;-70
2022/09/18 03:51:47;;;;;;;3.45;0.35;;;11.70;99.90;;;;;;5020915;28;20029;-70
2022/09/18 03:54:13;;;;;;;4.80;0.65;;;11.70;99.90;;;;;;5023770;28;20684;-70
2022/09/18 03:56:39;;;;;;;6.45;0.25;;;11.60;99.90;;;;;;5024560;28;20112;-70
2022/09/18 03:59:05;;;;;;;3.20;0.30;;;11.60;99.90;;;;;;5017542;28;20129;-71
2022/09/18 04:01:30;;;;;;;4.72;0.30;;;11.60;99.90;;;;;;5027773;28;20067;-70
2022/09/18 04:03:56;;;;;;;2.95;0.45;;;11.50;99.90;;;;;;5027616;28;20033;-71
2022/09/18 04:06:22;;;;;;;5.45;0.40;;;11.50;99.90;;;;;;5027202;28;20037;-68
2022/09/18 04:08:47;;;;;;;6.80;0.70;;;11.50;99.90;;;;;;5028190;28;20048;-70
2022/09/18 04:11:13;;;;;;;3.70;0.40;;;11.50;99.90;;;;;;5028047;28;20103;-70
2022/09/18 04:13:39;;;;;;;4.70;0.90;;;11.50;99.90;;;;;;5027225;28;20053;-68
2022/09/18 04:16:04;;;;;;;7.78;0.40;;;11.50;99.90;;;;;;5027788;28;20643;-68
2022/09/18 04:18:30;;;;;;;9.07;0.65;;;11.50;99.90;;;;;;5027902;28;20041;-69
2022/09/18 04:20:56;;;;;;;4.13;0.55;;;11.50;99.90;;;;;;5028105;28;20442;-70
2022/09/18 04:23:22;;;;;;;2.33;0.35;;;11.50;99.90;;;;;;5027292;28;20030;-69
2022/09/18 04:25:48;;;;;;;4.50;0.30;;;11.50;99.90;;;;;;5028505;28;20037;-70
2022/09/18 04:28:13;;;;;;;3.95;0.40;;;11.50;99.90;;;;;;5033406;28;20116;-70
2022/09/18 04:30:39;;;;;;;5.78;0.95;;;11.50;99.90;;;;;;5037713;28;20881;-70
2022/09/18 04:33:06;;;;;;;2.55;0.47;;;11.60;99.90;;;;;;5032802;28;20022;-68
2022/09/18 04:35:32;;;;;;;4.07;0.80;;;11.50;99.90;;;;;;5029950;28;20037;-71
2022/09/18 04:37:57;;;;;;;2.85;0.28;;;11.50;99.90;;;;;;5030064;28;20686;-71
2022/09/18 04:40:23;;;;;;;5.05;0.28;;;11.60;99.90;;;;;;5026665;28;20490;-67
2022/09/18 04:42:49;;;;;;;6.15;0.88;;;11.60;99.90;;;;;;5027422;28;20366;-69
2022/09/18 04:45:14;;;;;;;4.15;0.68;;;11.60;99.90;;;;;;5023678;28;20044;-69
2022/09/18 04:47:40;;;;;;;9.80;0.32;;;11.60;99.90;;;;;;5027244;28;20068;-69
2022/09/18 04:50:07;;;;;;;3.65;0.35;;;11.60;99.90;;;;;;5027299;28;20120;-70
2022/09/18 04:52:34;;;;;;;6.40;0.95;;;11.60;99.90;;;;;;5026813;28;20120;-70
2022/09/18 04:54:59;;;;;;;3.22;0.30;;;11.60;99.90;;;;;;5027029;28;20041;-71
2022/09/18 04:57:25;;;;;;;1.73;0.22;;;11.50;99.90;;;;;;5026804;28;20117;-68
2022/09/18 04:59:51;;;;;;;3.63;0.40;;;11.50;99.90;;;;;;5033370;28;20421;-68
2022/09/18 05:02:18;;;;;;;2.55;0.85;;;11.50;99.90;;;;;;5033799;28;20044;-72
2022/09/18 05:04:43;;;;;;;2.08;0.20;;;11.50;99.90;;;;;;5032260;28;20033;-70
2022/09/18 05:07:09;;;;;;;5.57;0.52;;;11.40;99.90;;;;;;5027558;28;20053;-66
2022/09/18 05:09:35;;;;;;;2.40;0.30;;;11.40;99.90;;;;;;5027762;28;20406;-68
2022/09/18 05:12:01;;;;;;;4.75;0.25;;;11.40;99.90;;;;;;5028407;28;20680;-71
2022/09/18 05:14:26;;;;;;;7.90;1.23;;;11.40;99.90;;;;;;5026545;28;20052;-70
2022/09/18 05:16:52;;;;;;;2.38;0.47;;;11.40;99.90;;;;;;5028636;28;20033;-70
2022/09/18 05:19:18;;;;;;;4.32;1.05;;;11.40;99.90;;;;;;5027665;28;20056;-68
2022/09/18 05:21:44;;;;;;;0.82;0.30;;;11.40;99.90;;;;;;5028511;28;20406;-71
2022/09/18 05:24:09;;;;;;;5.15;1.10;;;11.30;99.90;;;;;;5029300;28;20116;-71
2022/09/18 05:26:35;;;;;;;1.38;0.10;;;11.40;99.90;;;;;;5040387;28;20033;-67
2022/09/18 05:29:01;;;;;;;4.40;0.30;;;11.40;99.90;;;;;;5040459;28;20124;-72
2022/09/18 05:31:26;;;;;;;1.15;0.13;;;11.40;99.90;;;;;;5041713;28;20045;-69
2022/09/18 05:33:52;;;;;;;2.13;0.10;;;11.40;99.90;;;;;;5037518;28;20116;-70
2022/09/18 05:36:17;;;;;;;1.48;0.35;;;11.40;99.90;;;;;;5026797;28;20037;-71
2022/09/18 05:38:44;;;;;;;1.60;0.20;;;11.40;99.90;;;;;;5032525;28;20045;-70
2022/09/18 05:41:10;;;;;;;3.30;0.43;;;11.40;99.90;;;;;;5033188;28;20410;-71
2022/09/18 05:43:35;;;;;;;2.70;0.32;;;11.30;99.90;;;;;;5032753;28;20029;-70
2022/09/18 05:46:01;;;;;;;0.95;0.10;;;11.30;99.90;;;;;;5039337;28;20025;-71
2022/09/18 05:48:27;;;;;;;0.52;0.10;;;11.40;99.90;;;;;;5032095;28;20040;-71
2022/09/18 05:50:53;;;;;;;0.60;0.10;;;11.40;99.90;;;;;;5027788;28;20068;-69
2022/09/18 05:53:20;;;;;;;3.47;0.20;;;11.40;99.90;;;;;;5020334;28;20401;-68
2022/09/18 05:55:50;;;;;;;1.35;0.10;;;11.40;99.90;;;;;;5024976;28;20037;-70
2022/09/18 05:58:18;;;;;;;3.65;0.30;;;11.40;99.90;;;;;;5024933;28;20053;-70
2022/09/18 06:00:44;;;;;;;2.97;0.10;;;11.40;99.90;;;;;;5025805;28;20105;-68
2022/09/18 06:03:14;;;;;;;4.75;0.20;;;11.40;99.90;;;;;;5025261;28;20022;-70
2022/09/18 06:05:40;;;;;;;3.35;0.20;;;11.40;99.90;;;;;;5022718;28;20026;-70
2022/09/18 06:08:11;;;;;;;2.63;0.28;;;11.50;99.90;;;;;;5023477;28;20120;-70
2022/09/18 06:10:38;;;;;;;;;;;11.50;99.90;;;;;;5024794;28;20516;-69
2022/09/18 06:13:07;;;;;;;5.72;0.55;;;11.50;99.90;;;;;;5024894;28;19972;-69
2022/09/18 06:15:33;;;;;;;3.92;0.47;;;11.60;99.90;;;;;;5024002;28;20045;-71
2022/09/18 06:17:59;;;;;;;4.88;0.20;;;11.60;99.90;;;;;;5025439;28;20034;-69
2022/09/18 06:20:25;;;;;;;3.28;0.20;;;11.60;99.90;;;;;;5021246;28;20041;-68
2022/09/18 06:22:51;;;;;;;2.33;0.20;;;11.60;99.90;;;;;;5019359;28;20494;-68
2022/09/18 06:25:20;;;;;;;2.30;0.20;;;11.70;99.90;;;;;;5019298;28;20037;-70
2022/09/18 06:27:46;;;;;;;1.20;0.20;;;11.70;99.90;;;;;;5024503;28;20402;-69
2022/09/18 06:30:12;;;;;;;4.15;0.32;;;11.70;99.90;;;;;;5030476;28;20787;-70
2022/09/18 06:32:38;;;;;;;5.20;0.20;;;11.70;99.90;;;;;;5028441;28;20408;-68
2022/09/18 06:35:04;;;;;;;1.60;0.10;;;11.70;99.90;;;;;;5029216;28;20476;-69
2022/09/18 06:37:30;;;;;;;2.38;0.10;;;11.80;99.90;;;;;;5023952;28;20037;-70
2022/09/18 06:39:55;;;;;;;1.23;0.45;;;11.80;99.90;;;;;;5025540;28;20648;-70
2022/09/18 06:42:21;;;;;;;1.73;0.10;;;11.80;99.90;;;;;;5024915;28;20033;-68
2022/09/18 06:44:47;;;;;;;4.40;0.35;;;11.80;99.90;;;;;;5028130;28;20045;-70
2022/09/18 06:47:12;;;;;;;4.80;0.10;;;11.80;99.90;;;;;;5024298;28;20021;-69
2022/09/18 06:49:38;;;;;;;2.88;0.45;;;11.80;99.90;;;;;;5023949;28;20052;-70
2022/09/18 06:52:03;;;;;;;0.50;0.20;;;11.90;99.90;;;;;;5024294;28;20038;-70
2022/09/18 06:54:29;;;;;;;1.25;0.20;;;12.00;99.90;;;;;;5021121;28;20501;-68
2022/09/18 06:56:55;;;;;;;3.58;0.20;;;12.00;99.90;;;;;;5022613;28;20390;-70
2022/09/18 06:59:21;;;;;;;5.82;1.33;;;12.00;99.90;;;;;;5022534;28;20045;-68
2022/09/18 07:01:47;;;;;;;3.47;0.60;;;12.10;99.90;;;;;;5031537;28;20504;-71
2022/09/18 07:04:13;;;;;;;2.05;0.20;;;12.20;99.90;;;;;;5030545;28;20564;-70
2022/09/18 07:06:39;;;;;;;0.82;0.10;;;12.20;99.90;;;;;;5025823;28;20117;-69
2022/09/18 07:09:04;;;;;;;2.55;0.25;;;12.20;99.90;;;;;;5024759;28;20038;-70
2022/09/18 07:11:30;;;;;;;3.42;0.22;;;12.30;99.90;;;;;;5023272;28;20056;-71
2022/09/18 07:13:56;;;;;;;4.10;1.10;;;12.40;99.90;;;;;;5023024;28;20132;-70
2022/09/18 07:16:21;;;;;;;2.25;0.20;;;12.40;99.90;;;;;;5022259;28;20060;-70
2022/09/18 07:18:47;;;;;;;1.48;0.10;;;12.40;99.90;;;;;;5022548;28;20048;-70
2022/09/18 07:21:15;;;;;;;5.28;0.50;;;12.40;99.90;;;;;;5022871;28;20120;-71
2022/09/18 07:23:40;;;;;;;2.78;0.45;;;12.50;99.90;;;;;;5012526;28;20552;-69
2022/09/18 07:26:06;;;;;;;7.72;0.20;;;12.50;99.90;;;;;;5018903;28;20034;-70
2022/09/18 07:28:32;;;;;;;5.35;0.28;;;12.50;99.90;;;;;;5014216;28;20048;-70
2022/09/18 07:31:03;;;;;;;2.85;0.50;;;12.60;99.90;;;;;;5022773;28;20107;-69
2022/09/18 07:33:28;;;;;;;;;;;12.60;99.90;;;;;;5017855;28;20277;-69
2022/09/18 07:35:59;;;;;;;1.60;0.20;;;12.70;99.90;;;;;;5022141;28;20370;-72
2022/09/18 07:38:24;;;;;;;6.10;1.33;;;12.80;99.90;;;;;;5019151;28;20059;-72
2022/09/18 07:40:50;;;;;;;2.05;0.20;;;12.90;99.90;;;;;;5023214;28;20044;-69
2022/09/18 07:43:15;;;;;;;5.13;0.90;;;12.90;99.90;;;;;;5019461;28;20025;-71
2022/09/18 07:45:43;;;;;;;2.22;0.20;;;13.00;99.90;;;;;;5021954;28;20694;-71
2022/09/18 07:48:09;;;;;;;3.42;0.30;;;13.10;99.90;;;;;;5026254;28;20033;-70
2022/09/18 07:50:34;;;;;;;1.95;0.20;;;13.10;99.90;;;;;;5025817;28;20398;-71
2022/09/18 07:53:02;;;;;;;1.20;0.20;;;13.20;99.90;;;;;;5025777;28;20030;-71
2022/09/18 07:55:28;;;;;;;6.65;0.47;;;13.30;99.90;;;;;;5025348;28;20116;-71
2022/09/18 07:57:59;;;;;;;2.75;0.50;;;13.30;99.90;;;;;;5025925;28;20543;-70
2022/09/18 08:00:27;;;;;;;2.83;0.50;;;13.40;99.90;;;;;;5028572;28;20032;-67
2022/09/18 08:03:02;;;;;;;2.25;0.20;;;13.50;99.90;;;;;;5027767;28;20084;-68
2022/09/18 08:05:27;;;;;;;3.65;0.32;;;13.60;99.90;;;;;;5025350;28;20097;-72
2022/09/18 08:07:53;;;;;;;1.52;0.20;;;13.60;99.90;;;;;;5029273;28;20113;-68
2022/09/18 08:10:19;;;;;;;1.48;0.40;;;13.60;99.90;;;;;;5022079;28;20061;-70
2022/09/18 08:12:44;;;;;;;0.73;0.10;;;13.50;99.90;;;;;;5025621;28;20029;-71
2022/09/18 08:15:10;;;;;;;2.28;0.40;;;13.40;99.90;;;;;;5028376;28;20025;-69
2022/09/18 08:17:44;;;;;;;0.50;0.17;;;13.30;99.90;;;;;;5026805;28;20036;-69
2022/09/18 08:20:09;;;;;;;4.88;0.60;;;13.20;99.90;;;;;;5031490;28;20097;-67
2022/09/18 08:22:39;;;;;;;1.17;0.15;;;13.10;99.90;;;;;;5034777;28;20065;-70
2022/09/18 08:25:06;;;;;;;2.38;0.20;;;13.00;99.90;;;;;;5018718;28;20026;-70
2022/09/18 08:27:35;;;;;;;1.75;0.22;;;13.10;99.90;;;;;;5026124;28;20485;-70
2022/09/18 08:30:01;;;;;;;1.65;0.00;;;13.00;99.90;;;;;;5020361;28;20033;-68
2022/09/18 08:32:27;;;;;;;2.90;0.20;;;13.00;99.90;;;;;;5020813;28;20065;-68
2022/09/18 08:34:52;;;;;;;4.50;0.20;;;13.10;99.90;;;;;;5012956;28;20140;-68
2022/09/18 08:37:18;;;;;;;2.13;1.00;;;13.10;99.90;;;;;;5014249;28;20450;-69
2022/09/18 08:39:44;;;;;;;4.80;1.20;;;13.10;99.90;;;;;;5014255;28;20418;-71
2022/09/18 08:42:15;;;;;;;5.70;0.40;;;13.10;99.90;;;;;;5018500;28;20133;-71
2022/09/18 08:44:49;;;;;;;1.70;0.10;;;13.10;99.90;;;;;;5025031;28;20041;-71
2022/09/18 08:47:26;;;;;;;0.82;0.00;;;13.20;99.90;;;;;;5026850;28;20057;-70
2022/09/18 08:49:59;;;;;;;1.83;0.17;;;13.20;99.90;;;;;;5015790;28;20056;-71
2022/09/18 08:52:28;;;;;;;4.55;0.35;;;13.20;99.90;;;;;;5017347;28;20080;-67
2022/09/18 08:54:59;;;;;;;2.25;0.35;;;13.30;99.90;;;;;;5011856;28;20033;-72
2022/09/18 08:57:40;;;;;;;11.40;1.05;;;13.30;99.90;;;;;;5019818;28;20052;-70
2022/09/18 09:00:19;;;;;;;6.20;0.50;;;13.30;99.90;;;;;;5019518;28;20049;-70
2022/09/18 09:02:47;;;;;;;1.23;0.20;;;13.30;99.90;;;;;;5018433;28;20041;-71
2022/09/18 09:05:20;;;;;;;6.55;0.65;;;13.20;99.90;;;;;;5019502;28;20521;-70
2022/09/18 09:07:56;;;;;;;3.47;0.30;;;13.10;99.90;;;;;;5018786;28;20041;-70
2022/09/18 09:10:33;;;;;;;2.28;0.30;;;13.10;99.90;;;;;;5015076;28;20409;-67
2022/09/18 09:13:20;;;;;;;4.18;0.35;;;13.10;99.90;;;;;;5020410;28;20552;-71
2022/09/18 09:16:02;;;;;;;2.85;0.60;;;13.00;99.90;;;;;;5018642;28;20043;-69
2022/09/18 09:18:42;;;;;;;5.20;0.43;;;12.90;99.90;;;;;;5020574;28;21130;-71
2022/09/18 09:21:31;;;;;;;5.32;0.30;;;12.90;99.90;;;;;;5016481;28;20124;-69
2022/09/18 09:24:29;;;;;;;1.42;0.40;;;12.90;99.90;;;;;;5016742;28;20025;-69
2022/09/18 09:26:57;;;;;;;4.05;0.63;;;12.90;99.90;;;;;;4997703;28;20076;-68
2022/09/18 09:29:34;;;;;;;2.63;0.50;;;12.80;99.90;;;;;;5021664;28;20087;-69
2022/09/18 09:32:09;;;;;;;2.60;0.75;;;12.80;99.90;;;;;;5021096;28;20618;-69
2022/09/18 09:34:43;;;;;;;2.60;0.20;;;12.70;99.90;;;;;;5011719;28;20057;-69
2022/09/18 09:37:15;;;;;;;5.75;0.30;;;12.70;99.90;;;;;;5015994;28;20048;-68
2022/09/18 09:39:50;;;;;;;1.83;0.40;;;12.80;99.90;;;;;;5024622;28;20048;-69
2022/09/18 09:42:32;;;;;;;3.83;0.50;;;12.80;99.90;;;;;;5028095;28;20042;-69
2022/09/18 09:45:15;;;;;;;4.03;0.30;;;12.70;99.90;;;;;;5026851;28;20126;-69
2022/09/18 09:47:55;;;;;;;9.32;0.68;;;12.60;99.90;;;;;;5019109;28;20145;-67
2022/09/18 09:50:57;;;;;;;5.50;0.50;;;12.60;99.90;;;;;;5018295;28;20067;-70
2022/09/18 09:53:25;;;;;;;3.92;0.68;;;12.70;99.90;;;;;;5016283;28;20033;-68
2022/09/18 09:56:06;;;;;;;3.85;0.40;;;12.80;99.90;;;;;;5024010;28;20029;-70
2022/09/18 09:58:59;;;;;;;1.77;0.25;;;12.90;99.90;;;;;;5018402;28;20056;-69
2022/09/18 10:01:48;;;;;;;7.80;0.50;;;13.10;99.90;;;;;;5022003;28;20094;-69
2022/09/18 10:04:33;;;;;;;4.32;0.35;;;13.10;99.90;;;;;;5022732;28;20064;-70
2022/09/18 10:07:15;;;;;;;3.50;0.20;;;13.20;99.90;;;;;;5021586;28;20048;-70
2022/09/18 10:10:05;;;;;;;5.82;0.43;;;13.30;99.90;;;;;;5022247;28;20034;-68
2022/09/18 10:12:50;;;;;;;3.53;0.35;;;13.40;99.90;;;;;;5018706;28;20048;-70
2022/09/18 10:15:37;;;;;;;3.65;0.30;;;13.50;99.90;;;;;;5024836;28;20048;-70
2022/09/18 10:18:15;;;;;;;3.38;0.20;;;13.60;99.90;;;;;;5021488;28;20041;-70
2022/09/18 10:20:43;;;;;;;10.05;0.35;;;13.70;99.90;;;;;;5024569;28;20040;-69
2022/09/18 10:23:19;;;;;;;4.60;0.30;;;13.70;99.90;;;;;;5024100;28;20092;-68
2022/09/18 10:25:53;;;;;;;5.10;0.50;;;13.70;99.90;;;;;;5024153;28;20494;-70
2022/09/18 10:28:20;;;;;;;3.33;0.65;;;13.70;99.90;;;;;;5023389;28;20034;-68
2022/09/18 10:31:00;;;;;;;9.98;0.63;;;13.80;99.90;;;;;;5025777;28;20033;-69
2022/09/18 10:33:30;;;;;;;2.20;0.82;;;13.80;99.90;;;;;;5020119;28;20053;-70
2022/09/18 10:36:01;;;;;;;2.55;0.40;;;13.80;99.90;;;;;;5025024;28;20103;-70
2022/09/18 10:38:31;;;;;;;2.47;0.50;;;13.90;99.90;;;;;;5017748;28;20033;-70
2022/09/18 10:41:21;;;;;;;5.20;0.60;;;13.90;99.90;;;;;;5019194;28;20033;-67
2022/09/18 10:43:58;;;;;;;3.80;0.70;;;13.90;99.90;;;;;;5018729;28;20041;-71
2022/09/18 10:46:30;;;;;;;4.97;0.40;;;13.90;99.90;;;;;;5017367;28;20064;-69
2022/09/18 10:49:30;;;;;;;9.15;0.45;;;13.90;99.90;;;;;;5012486;28;20037;-68
2022/09/18 10:52:17;;;;;;;2.10;0.25;;;13.80;99.90;;;;;;5012376;28;20034;-70
2022/09/18 10:55:08;;;;;;;7.28;0.30;;;13.80;99.90;;;;;;5020745;28;20029;-70
2022/09/18 10:57:42;;;;;;;3.78;0.25;;;13.90;99.90;;;;;;5021993;28;20038;-70
2022/09/18 11:00:11;;;;;;;3.72;0.50;;;13.80;99.90;;;;;;5022201;28;20041;-71
2022/09/18 11:02:45;;;;;;;5.28;0.50;;;13.80;99.90;;;;;;5025595;28;20037;-69
2022/09/18 11:05:28;;;;;;;2.65;0.20;;;13.70;99.90;;;;;;5029232;28;20037;-69
2022/09/18 11:07:56;;;;;;;6.85;0.38;;;13.50;99.90;;;;;;5030170;28;20091;-72
2022/09/18 11:10:24;;;;;;;3.58;0.55;;;13.50;99.90;;;;;;5020459;28;20088;-67
2022/09/18 11:12:53;;;;;;;3.03;0.22;;;13.50;99.90;;;;;;5026966;28;20032;-70
2022/09/18 11:15:21;;;;;;;4.38;0.20;;;13.40;99.90;;;;;;5024838;28;20098;-70
2022/09/18 11:17:51;;;;;;;0.77;0.20;;;13.30;99.90;;;;;;5026088;28;20086;-70
2022/09/18 11:20:40;;;;;;;2.57;0.37;;;13.20;99.90;;;;;;5023901;28;20090;-67
2022/09/18 11:23:35;;;;;;;0.98;0.10;;;13.20;99.90;;;;;;5023224;28;20053;-70
2022/09/18 11:26:20;;;;;;;1.75;0.20;;;13.10;99.90;;;;;;5027234;28;20064;-69
2022/09/18 11:29:27;;;;;;;0.88;0.17;;;13.10;99.90;;;;;;5026320;28;20132;-69
2022/09/18 11:32:17;;;;;;;2.22;0.20;;;13.10;99.90;;;;;;5022383;28;20100;-70
2022/09/18 11:34:50;;;;;;;1.77;0.10;;;13.10;99.90;;;;;;5021182;28;20029;-68
2022/09/18 11:37:42;;;;;;;7.07;1.00;;;13.20;99.90;;;;;;5024525;28;20095;-71
2022/09/18 11:40:41;;;;;;;1.20;0.15;;;13.20;99.90;;;;;;5024046;28;20080;-70
2022/09/18 11:43:34;;;;;;;3.00;0.30;;;13.20;99.90;;;;;;5025944;28;20128;-70
2022/09/18 11:46:20;;;;;;;3.63;0.30;;;13.20;99.90;;;;;;5025326;28;20033;-66
2022/09/18 11:49:10;;;;;;;2.60;0.35;;;13.20;99.90;;;;;;5023934;28;20397;-68
2022/09/18 11:51:51;;;;;;;3.72;0.32;;;13.30;99.90;;;;;;5022259;28;20056;-70
2022/09/18 11:54:27;;;;;;;3.00;0.10;;;13.20;99.90;;;;;;5023616;28;20408;-70
2022/09/18 11:56:58;;;;;;;9.75;0.50;;;13.30;99.90;;;;;;5023069;28;20037;-69
2022/09/18 11:59:26;;;;;;;;;;;13.30;99.90;;;;;;5025130;28;20515;-70
2022/09/18 12:02:13;;;;;;;5.93;0.60;;;13.30;99.90;;;;;;5027617;28;20006;-70
2022/09/18 12:05:04;;;;;;;1.98;0.20;;;13.30;99.90;;;;;;5020901;28;20481;-71
2022/09/18 12:07:44;;;;;;;2.00;0.20;;;13.40;99.90;;;;;;5023964;28;20037;-71
2022/09/18 12:10:10;;;;;;;3.15;0.50;;;13.40;99.90;;;;;;5026273;28;20037;-71
2022/09/18 12:13:15;;;;;;;3.08;0.20;;;13.40;99.90;;;;;;5024451;28;20041;-70
2022/09/18 12:15:44;;;;;;;2.15;0.60;;;13.50;99.90;;;;;;5012415;28;20045;-70
2022/09/18 12:18:17;;;;;;;8.25;0.30;;;13.60;99.90;;;;;;5025416;28;20038;-68
2022/09/18 12:20:53;;;;;;;1.63;0.22;;;13.70;99.90;;;;;;5025940;28;20103;-71
2022/09/18 12:23:24;;;;;;;3.40;0.43;;;13.70;99.90;;;;;;5023466;28;20026;-70
2022/09/18 12:25:53;;;;;;;3.10;0.25;;;13.80;99.90;;;;;;5033736;28;20030;-70
2022/09/18 12:28:45;;;;;;;2.88;0.20;;;13.80;99.90;;;;;;5032847;28;20502;-71
2022/09/18 12:31:18;;;;;;;4.63;0.40;;;13.90;99.90;;;;;;5022878;28;20040;-68
2022/09/18 12:34:02;;;;;;;3.35;0.20;;;13.80;99.90;;;;;;5021580;28;20038;-70
2022/09/18 12:36:37;;;;;;;1.27;0.35;;;13.80;99.90;;;;;;5025880;28;20046;-68
2022/09/18 12:39:30;;;;;;;2.33;0.38;;;13.80;99.90;;;;;;5022135;28;20045;-70
2022/09/18 12:42:17;;;;;;;1.15;0.15;;;13.70;99.90;;;;;;5020433;28;20044;-69
2022/09/18 12:45:20;;;;;;;4.95;0.30;;;13.60;99.90;;;;;;5023271;28;20490;-69
2022/09/18 12:48:04;;;;;;;1.38;0.20;;;13.50;99.90;;;;;;5019322;28;20452;-70
2022/09/18 12:50:50;;;;;;;4.20;0.30;;;13.50;99.90;;;;;;5018773;28;20038;-69
2022/09/18 12:53:46;;;;;;;0.98;0.20;;;13.40;99.90;;;;;;5017666;28;20042;-69
2022/09/18 12:56:11;;;;;;;3.22;0.20;;;13.20;99.90;;;;;;5023760;28;20380;-69
2022/09/18 12:58:58;;;;;;;0.32;0.10;;;13.00;99.90;;;;;;5018893;28;20397;-70
2022/09/18 13:01:30;;;;;;;2.40;0.47;;;12.80;99.90;;;;;;5021664;28;20037;-70
2022/09/18 13:04:16;;;;;;;2.92;0.20;;;12.60;99.90;;;;;;5027654;28;20132;-70
2022/09/18 13:06:47;;;;;;;1.27;0.15;;;12.50;99.90;;;;;;5027727;28;20044;-70
2022/09/18 13:09:24;;;;;;;1.50;0.45;;;12.40;99.90;;;;;;5021474;28;20049;-70
2022/09/18 13:12:05;;;;;;;2.83;0.25;;;12.30;99.90;;;;;;5028117;28;20087;-70
2022/09/18 13:14:54;;;;;;;3.65;0.20;;;12.30;99.90;;;;;;5036403;28;20032;-68
2022/09/18 13:17:27;;;;;;;0.77;0.10;;;12.30;99.90;;;;;;5036468;28;20456;-69